createdAt,value
2016-10-17T00:00:14.759Z,28.12
2016-10-17T00:01:14.267Z,28.11
2016-10-17T00:02:14.325Z,27.98
2016-10-17T00:03:14.408Z,28.01
2016-10-17T00:04:14.427Z,27.93
2016-10-17T00:05:14.536Z,27.93
2016-10-17T00:06:14.546Z,27.96
2016-10-17T00:07:14.584Z,27.96
2016-10-17T00:08:14.703Z,27.9
2016-10-17T00:09:14.725Z,27.87
2016-10-17T00:10:14.802Z,27.93
2016-10-17T00:11:14.827Z,27.93
2016-10-17T00:12:14.895Z,28.04
2016-10-17T00:13:14.958Z,27.98
2016-10-17T00:14:15.017Z,28.1
2016-10-17T00:15:15.052Z,28.11
2016-10-17T00:16:15.135Z,28.08
2016-10-17T00:17:15.827Z,28.05
2016-10-17T00:18:15.223Z,28.19
2016-10-17T00:19:15.290Z,28.22
2016-10-17T00:20:15.365Z,28.25
2016-10-17T00:21:15.461Z,28.11
2016-10-17T00:22:15.549Z,28.11
2016-10-17T00:23:15.511Z,28.12
2016-10-17T00:24:15.622Z,28.1
2016-10-17T00:25:15.651Z,28.05
2016-10-17T00:26:15.721Z,28.12
2016-10-17T00:27:15.881Z,28.11
2016-10-17T00:28:15.799Z,28.11
2016-10-17T00:29:15.873Z,28.11
2016-10-17T00:30:15.903Z,28.08
2016-10-17T00:31:15.950Z,28.1
2016-10-17T00:32:16.125Z,28.04
2016-10-17T00:33:16.078Z,28.07
2016-10-17T00:34:16.197Z,28.07
2016-10-17T00:35:16.211Z,28.02
2016-10-17T00:36:16.266Z,28.05
2016-10-17T00:37:16.281Z,28.1
2016-10-17T00:38:16.384Z,28.12
2016-10-17T00:39:16.415Z,28.14
2016-10-17T00:40:16.483Z,28.14
2016-10-17T00:41:16.532Z,28.11
2016-10-17T00:42:16.576Z,28.07
2016-10-17T00:43:16.653Z,28.12
2016-10-17T00:44:16.689Z,28.07
2016-10-17T00:45:16.767Z,28.11
2016-10-17T00:46:16.784Z,28
2016-10-17T00:47:16.874Z,28.02
2016-10-17T00:48:17.043Z,28.01
2016-10-17T00:49:16.935Z,28.07
2016-10-17T00:50:17.045Z,28.11
2016-10-17T00:51:17.148Z,28.12
2016-10-17T00:52:17.113Z,28.02
2016-10-17T00:53:17.810Z,27.89
2016-10-17T00:54:17.248Z,27.85
2016-10-17T00:55:17.309Z,27.77
2016-10-17T00:56:17.379Z,27.6
2016-10-17T00:57:17.466Z,27.59
2016-10-17T00:58:17.572Z,27.64
2016-10-17T00:59:17.545Z,27.68
2016-10-17T01:00:17.667Z,27.8
2016-10-17T01:01:17.644Z,27.75
2016-10-17T01:02:18.202Z,27.7
2016-10-17T01:03:17.874Z,27.73
2016-10-17T01:04:17.833Z,27.64
2016-10-17T01:05:17.871Z,27.54
2016-10-17T01:06:17.908Z,27.52
2016-10-17T01:07:18.027Z,27.54
2016-10-17T01:08:18.154Z,27.58
2016-10-17T01:09:18.120Z,27.59
2016-10-17T01:10:18.668Z,27.54
2016-10-17T01:11:18.980Z,27.58
2016-10-17T01:12:18.241Z,27.55
2016-10-17T01:13:18.336Z,27.6
2016-10-17T01:14:18.375Z,27.55
2016-10-17T01:15:18.455Z,27.52
2016-10-17T01:16:18.543Z,27.6
2016-10-17T01:17:18.628Z,27.59
2016-10-17T01:18:18.610Z,27.51
2016-10-17T01:19:18.746Z,27.6
2016-10-17T01:20:18.791Z,27.6
2016-10-17T01:21:18.786Z,27.48
2016-10-17T01:22:19.358Z,27.55
2016-10-17T01:23:18.849Z,27.52
2016-10-17T01:24:18.951Z,27.44
2016-10-17T01:25:18.987Z,27.45
2016-10-17T01:26:19.046Z,27.52
2016-10-17T01:27:19.191Z,27.48
2016-10-17T01:28:19.226Z,27.39
2016-10-17T01:29:19.312Z,27.39
2016-10-17T01:30:19.294Z,27.42
2016-10-17T01:31:19.377Z,27.35
2016-10-17T01:32:19.397Z,27.39
2016-10-17T01:33:19.945Z,27.48
2016-10-17T01:34:19.622Z,27.44
2016-10-17T01:35:20.087Z,27.48
2016-10-17T01:36:19.632Z,27.44
2016-10-17T01:37:19.644Z,27.44
2016-10-17T01:38:19.794Z,27.47
2016-10-17T01:39:19.918Z,27.35
2016-10-17T01:40:19.824Z,27.39
2016-10-17T01:41:19.891Z,27.21
2016-10-17T01:42:19.960Z,27.17
2016-10-17T01:43:20.008Z,27.18
2016-10-17T01:44:20.163Z,27.18
2016-10-17T01:45:20.124Z,27.21
2016-10-17T01:46:20.177Z,27.12
2016-10-17T01:47:20.262Z,27.27
2016-10-17T01:48:20.286Z,27.29
2016-10-17T01:49:20.374Z,27.32
2016-10-17T01:50:20.417Z,27.35
2016-10-17T01:51:20.533Z,27.29
2016-10-17T01:52:20.545Z,27.3
2016-10-17T01:53:20.558Z,27.21
2016-10-17T01:54:20.644Z,27.17
2016-10-17T01:55:20.656Z,27.14
2016-10-17T01:56:20.757Z,27.12
2016-10-17T01:57:20.820Z,27.1
2016-10-17T01:58:20.846Z,27.03
2016-10-17T01:59:20.895Z,26.95
2016-10-17T02:00:21.004Z,26.97
2016-10-17T02:01:21.009Z,26.97
2016-10-17T02:02:21.567Z,26.95
2016-10-17T02:03:21.114Z,27.02
2016-10-17T02:04:21.195Z,27.03
2016-10-17T02:05:21.497Z,27.02
2016-10-17T02:06:21.295Z,26.97
2016-10-17T02:07:21.452Z,27.05
2016-10-17T02:08:21.435Z,27.05
2016-10-17T02:09:21.505Z,27.1
2016-10-17T02:10:22.152Z,27.05
2016-10-17T02:11:21.618Z,27.07
2016-10-17T02:12:21.674Z,27
2016-10-17T02:13:21.754Z,27
2016-10-17T02:14:21.804Z,26.99
2016-10-17T02:15:21.892Z,26.95
2016-10-17T02:16:21.813Z,26.93
2016-10-17T02:17:21.926Z,26.97
2016-10-17T02:18:21.975Z,26.96
2016-10-17T02:19:22.011Z,26.93
2016-10-17T02:20:22.215Z,26.96
2016-10-17T02:21:22.158Z,26.99
2016-10-17T02:22:22.166Z,26.92
2016-10-17T02:23:22.256Z,26.93
2016-10-17T02:24:22.273Z,27
2016-10-17T02:25:22.368Z,27
2016-10-17T02:26:22.468Z,27
2016-10-17T02:27:22.515Z,26.92
2016-10-17T02:28:22.536Z,26.95
2016-10-17T02:29:22.591Z,26.95
2016-10-17T02:30:22.640Z,26.89
2016-10-17T02:31:22.690Z,26.95
2016-10-17T02:32:22.752Z,26.9
2016-10-17T02:33:22.816Z,26.83
2016-10-17T02:34:22.856Z,26.81
2016-10-17T02:35:22.930Z,26.75
2016-10-17T02:36:23.048Z,26.71
2016-10-17T02:37:23.044Z,26.63
2016-10-17T02:38:23.087Z,26.73
2016-10-17T02:39:23.143Z,26.7
2016-10-17T02:40:23.214Z,26.65
2016-10-17T02:41:23.321Z,26.8
2016-10-17T02:42:23.343Z,26.68
2016-10-17T02:43:23.343Z,26.66
2016-10-17T02:44:23.440Z,26.66
2016-10-17T02:45:23.513Z,26.52
2016-10-17T02:46:23.618Z,26.7
2016-10-17T02:47:23.599Z,26.74
2016-10-17T02:48:23.648Z,26.66
2016-10-17T02:49:23.816Z,26.6
2016-10-17T02:50:24.257Z,26.58
2016-10-17T02:51:23.926Z,26.58
2016-10-17T02:52:23.918Z,26.62
2016-10-17T02:53:23.887Z,26.53
2016-10-17T02:54:23.991Z,26.55
2016-10-17T02:55:24.054Z,26.6
2016-10-17T02:56:24.087Z,26.62
2016-10-17T02:57:24.158Z,26.59
2016-10-17T02:58:24.185Z,26.59
2016-10-17T02:59:24.312Z,26.58
2016-10-17T03:00:24.284Z,26.48
2016-10-17T03:01:24.394Z,26.55
2016-10-17T03:02:24.413Z,26.38
2016-10-17T03:03:24.463Z,26.45
2016-10-17T03:04:24.541Z,26.44
2016-10-17T03:05:24.706Z,26.45
2016-10-17T03:06:24.655Z,26.56
2016-10-17T03:07:24.834Z,26.53
2016-10-17T03:08:24.727Z,26.51
2016-10-17T03:09:24.823Z,26.48
2016-10-17T03:10:24.931Z,26.37
2016-10-17T03:11:24.894Z,26.38
2016-10-17T03:12:25.113Z,26.31
2016-10-17T03:13:25.031Z,26.37
2016-10-17T03:14:25.072Z,26.4
2016-10-17T03:15:25.151Z,26.36
2016-10-17T03:16:25.211Z,26.29
2016-10-17T03:17:25.865Z,26.29
2016-10-17T03:18:25.263Z,26.29
2016-10-17T03:19:25.355Z,26.28
2016-10-17T03:20:25.438Z,26.26
2016-10-17T03:21:25.474Z,26.28
2016-10-17T03:22:25.590Z,26.34
2016-10-17T03:23:25.605Z,26.29
2016-10-17T03:24:25.664Z,26.28
2016-10-17T03:25:25.700Z,26.23
2016-10-17T03:26:25.756Z,26.31
2016-10-17T03:27:25.806Z,26.33
2016-10-17T03:28:25.866Z,26.31
2016-10-17T03:29:25.934Z,26.25
2016-10-17T03:30:26.495Z,26.33
2016-10-17T03:31:26.018Z,26.31
2016-10-17T03:32:26.136Z,26.29
2016-10-17T03:33:26.104Z,26.33
2016-10-17T03:34:26.178Z,26.28
2016-10-17T03:35:26.744Z,26.31
2016-10-17T03:36:26.285Z,26.33
2016-10-17T03:37:26.363Z,26.33
2016-10-17T03:38:26.475Z,26.31
2016-10-17T03:39:26.444Z,26.4
2016-10-17T03:40:27.050Z,26.31
2016-10-17T03:41:27.131Z,26.28
2016-10-17T03:42:26.640Z,26.29
2016-10-17T03:43:26.809Z,26.29
2016-10-17T03:44:26.748Z,26.26
2016-10-17T03:45:26.839Z,26.29
2016-10-17T03:46:26.878Z,26.22
2016-10-17T03:47:26.985Z,26.26
2016-10-17T03:48:27.112Z,26.16
2016-10-17T03:49:27.038Z,26.13
2016-10-17T03:50:27.102Z,26.15
2016-10-17T03:51:27.127Z,26.03
2016-10-17T03:52:27.176Z,26.19
2016-10-17T03:53:27.841Z,26.07
2016-10-17T03:54:27.264Z,26.05
2016-10-17T03:55:27.345Z,26.09
2016-10-17T03:56:27.449Z,26
2016-10-17T03:57:27.500Z,25.95
2016-10-17T03:58:27.534Z,25.95
2016-10-17T03:59:27.588Z,25.96
2016-10-17T04:00:28.134Z,26.03
2016-10-17T04:01:27.686Z,26
2016-10-17T04:02:27.737Z,26.02
2016-10-17T04:03:27.779Z,26.02
2016-10-17T04:04:28.375Z,26
2016-10-17T04:05:27.905Z,26.05
2016-10-17T04:06:27.938Z,26
2016-10-17T04:07:28.038Z,26.06
2016-10-17T04:08:28.035Z,26.03
2016-10-17T04:09:28.151Z,25.98
2016-10-17T04:10:28.243Z,25.96
2016-10-17T04:11:28.284Z,25.95
2016-10-17T04:12:28.313Z,26.02
2016-10-17T04:13:28.371Z,25.87
2016-10-17T04:14:28.540Z,25.9
2016-10-17T04:15:28.472Z,25.99
2016-10-17T04:16:29.049Z,25.88
2016-10-17T04:17:28.571Z,26.02
2016-10-17T04:18:28.607Z,25.95
2016-10-17T04:19:28.787Z,25.9
2016-10-17T04:20:28.707Z,25.91
2016-10-17T04:21:28.786Z,25.85
2016-10-17T04:22:28.832Z,25.8
2016-10-17T04:23:28.937Z,25.9
2016-10-17T04:24:29.020Z,25.88
2016-10-17T04:25:29.041Z,25.78
2016-10-17T04:26:29.135Z,25.72
2016-10-17T04:27:29.083Z,25.75
2016-10-17T04:28:29.735Z,25.77
2016-10-17T04:29:29.328Z,25.81
2016-10-17T04:30:29.277Z,25.78
2016-10-17T04:31:29.332Z,25.8
2016-10-17T04:32:29.415Z,25.63
2016-10-17T04:33:29.483Z,25.59
2016-10-17T04:34:30.023Z,25.68
2016-10-17T04:35:29.570Z,25.75
2016-10-17T04:36:29.613Z,25.78
2016-10-17T04:37:29.667Z,25.75
2016-10-17T04:38:29.706Z,25.7
2016-10-17T04:39:29.786Z,25.77
2016-10-17T04:40:29.810Z,25.7
2016-10-17T04:41:29.893Z,25.8
2016-10-17T04:42:30.481Z,25.8
2016-10-17T04:43:30.050Z,25.75
2016-10-17T04:44:30.015Z,25.68
2016-10-17T04:45:30.627Z,25.59
2016-10-17T04:46:30.161Z,25.59
2016-10-17T04:47:30.246Z,25.53
2016-10-17T04:48:30.263Z,25.47
2016-10-17T04:49:30.308Z,25.48
2016-10-17T04:50:30.404Z,25.46
2016-10-17T04:51:30.419Z,25.54
2016-10-17T04:52:30.498Z,25.51
2016-10-17T04:53:30.556Z,25.53
2016-10-17T04:54:30.639Z,25.51
2016-10-17T04:55:30.799Z,25.53
2016-10-17T04:56:30.705Z,25.6
2016-10-17T04:57:30.749Z,25.63
2016-10-17T04:58:30.830Z,25.6
2016-10-17T04:59:30.854Z,25.63
2016-10-17T05:00:31.045Z,25.53
2016-10-17T05:01:30.974Z,25.55
2016-10-17T05:02:31.044Z,25.48
2016-10-17T05:03:31.108Z,25.62
2016-10-17T05:04:31.141Z,25.46
2016-10-17T05:05:31.277Z,25.47
2016-10-17T05:06:31.282Z,25.43
2016-10-17T05:07:31.331Z,25.4
2016-10-17T05:08:31.388Z,25.38
2016-10-17T05:09:31.384Z,25.18
2016-10-17T05:10:31.552Z,25.17
2016-10-17T05:11:31.528Z,25.18
2016-10-17T05:12:31.620Z,25.18
2016-10-17T05:13:31.683Z,25.1
2016-10-17T05:14:31.678Z,25.16
2016-10-17T05:15:31.763Z,25.13
2016-10-17T05:16:31.810Z,25.1
2016-10-17T05:17:31.841Z,25.03
2016-10-17T05:18:31.901Z,24.98
2016-10-17T05:19:31.986Z,24.93
2016-10-17T05:20:32.044Z,24.98
2016-10-17T05:21:32.113Z,24.93
2016-10-17T05:22:32.116Z,24.8
2016-10-17T05:23:32.206Z,24.77
2016-10-17T05:24:32.292Z,24.76
2016-10-17T05:25:32.298Z,24.65
2016-10-17T05:26:32.457Z,24.32
2016-10-17T05:27:32.417Z,24.11
2016-10-17T05:28:32.504Z,23.98
2016-10-17T05:29:32.517Z,23.8
2016-10-17T05:30:32.577Z,23.71
2016-10-17T05:31:32.724Z,23.62
2016-10-17T05:32:32.732Z,23.68
2016-10-17T05:33:32.719Z,23.63
2016-10-17T05:34:32.790Z,23.69
2016-10-17T05:35:32.834Z,23.73
2016-10-17T05:36:32.967Z,23.77
2016-10-17T05:37:32.930Z,23.76
2016-10-17T05:38:32.958Z,23.74
2016-10-17T05:39:33.549Z,23.73
2016-10-17T05:40:33.102Z,23.65
2016-10-17T05:41:33.161Z,23.63
2016-10-17T05:42:33.235Z,23.61
2016-10-17T05:43:33.251Z,23.48
2016-10-17T05:44:33.344Z,23.47
2016-10-17T05:45:33.346Z,23.44
2016-10-17T05:46:33.407Z,23.44
2016-10-17T05:47:33.465Z,23.43
2016-10-17T05:48:33.503Z,23.5
2016-10-17T05:49:33.590Z,23.51
2016-10-17T05:50:33.600Z,23.51
2016-10-17T05:51:33.723Z,23.48
2016-10-17T05:52:33.769Z,23.4
2016-10-17T05:53:33.758Z,23.44
2016-10-17T05:54:33.921Z,23.4
2016-10-17T05:55:33.895Z,23.41
2016-10-17T05:56:33.965Z,23.48
2016-10-17T05:57:34.079Z,23.23
2016-10-17T05:58:34.022Z,23.28
2016-10-17T05:59:34.090Z,23.27
2016-10-17T06:00:34.124Z,23.27
2016-10-17T06:01:34.209Z,23.15
2016-10-17T06:02:34.382Z,23.03
2016-10-17T06:03:34.325Z,23.02
2016-10-17T06:04:34.378Z,22.93
2016-10-17T06:05:34.456Z,22.98
2016-10-17T06:06:34.471Z,22.93
2016-10-17T06:07:34.605Z,22.94
2016-10-17T06:08:34.612Z,22.88
2016-10-17T06:09:34.606Z,22.96
2016-10-17T06:10:34.664Z,22.85
2016-10-17T06:11:34.750Z,22.93
2016-10-17T06:12:34.929Z,22.91
2016-10-17T06:13:34.833Z,22.9
2016-10-17T06:14:34.870Z,22.87
2016-10-17T06:15:34.999Z,22.84
2016-10-17T06:16:34.973Z,22.88
2016-10-17T06:17:35.010Z,22.85
2016-10-17T06:18:35.122Z,22.85
2016-10-17T06:19:35.177Z,22.88
2016-10-17T06:20:35.204Z,22.83
2016-10-17T06:21:35.264Z,22.75
2016-10-17T06:22:35.303Z,22.75
2016-10-17T06:23:35.372Z,22.69
2016-10-17T06:24:35.416Z,22.65
2016-10-17T06:25:35.476Z,22.76
2016-10-17T06:26:35.597Z,22.81
2016-10-17T06:27:35.566Z,22.72
2016-10-17T06:28:35.746Z,22.73
2016-10-17T06:29:35.664Z,22.73
2016-10-17T06:30:35.780Z,22.65
2016-10-17T06:31:35.769Z,22.55
2016-10-17T06:32:35.879Z,22.57
2016-10-17T06:33:36.517Z,22.53
2016-10-17T06:34:35.993Z,22.51
2016-10-17T06:35:35.994Z,22.53
2016-10-17T06:36:36.091Z,22.66
2016-10-17T06:37:36.083Z,22.6
2016-10-17T06:38:36.278Z,22.39
2016-10-17T06:39:36.204Z,22.39
2016-10-17T06:40:36.308Z,22.32
2016-10-17T06:41:36.343Z,22.39
2016-10-17T06:42:36.362Z,22.38
2016-10-17T06:43:36.554Z,22.36
2016-10-17T06:44:36.522Z,22.54
2016-10-17T06:45:36.536Z,22.65
2016-10-17T06:46:36.618Z,22.7
2016-10-17T06:47:36.625Z,22.65
2016-10-17T06:48:36.735Z,22.55
2016-10-17T06:49:36.742Z,22.55
2016-10-17T06:50:36.783Z,22.55
2016-10-17T06:51:36.866Z,22.45
2016-10-17T06:52:36.896Z,22.54
2016-10-17T06:53:36.914Z,22.6
2016-10-17T06:54:37.050Z,22.75
2016-10-17T06:55:37.024Z,22.72
2016-10-17T06:56:37.093Z,22.72
2016-10-17T06:57:37.193Z,22.66
2016-10-17T06:58:37.225Z,22.66
2016-10-17T06:59:37.278Z,22.51
2016-10-17T07:00:37.305Z,22.39
2016-10-17T07:01:37.362Z,22.23
2016-10-17T07:02:37.402Z,22.26
2016-10-17T07:03:37.482Z,22.39
2016-10-17T07:04:37.562Z,22.36
2016-10-17T07:05:37.576Z,22.3
2016-10-17T07:06:37.607Z,22.14
2016-10-17T07:07:37.672Z,22.25
2016-10-17T07:08:37.727Z,22.14
2016-10-17T07:09:38.383Z,22.13
2016-10-17T07:10:37.828Z,22.11
2016-10-17T07:11:37.883Z,22.23
2016-10-17T07:12:37.974Z,22.3
2016-10-17T07:13:38.016Z,22.38
2016-10-17T07:14:38.140Z,22.38
2016-10-17T07:15:38.136Z,22.33
2016-10-17T07:16:38.167Z,22.17
2016-10-17T07:17:38.222Z,22.18
2016-10-17T07:18:38.285Z,22.14
2016-10-17T07:19:38.404Z,22.06
2016-10-17T07:20:38.371Z,22.1
2016-10-17T07:21:38.409Z,21.99
2016-10-17T07:22:38.453Z,22.1
2016-10-17T07:23:38.516Z,22.15
2016-10-17T07:24:39.246Z,22.22
2016-10-17T07:25:38.613Z,22.26
2016-10-17T07:26:38.729Z,22.23
2016-10-17T07:27:38.706Z,22.14
2016-10-17T07:28:38.807Z,22.22
2016-10-17T07:29:38.855Z,22.06
2016-10-17T07:30:38.898Z,22.14
2016-10-17T07:31:38.965Z,22.15
2016-10-17T07:32:39.017Z,22.22
2016-10-17T07:33:39.027Z,22.17
2016-10-17T07:34:39.087Z,22.28
2016-10-17T07:35:39.124Z,22.2
2016-10-17T07:36:39.187Z,22.28
2016-10-17T07:37:39.307Z,22.29
2016-10-17T07:38:39.310Z,22.39
2016-10-17T07:39:39.324Z,22.39
2016-10-17T07:40:39.594Z,22.17
2016-10-17T07:41:39.439Z,22.2
2016-10-17T07:42:39.538Z,22.11
2016-10-17T07:43:40.077Z,22.13
2016-10-17T07:44:39.651Z,22.06
2016-10-17T07:45:39.815Z,22.2
2016-10-17T07:46:39.754Z,22.22
2016-10-17T07:47:39.762Z,22.14
2016-10-17T07:48:39.951Z,22.39
2016-10-17T07:49:39.958Z,22.38
2016-10-17T07:50:40.048Z,22.33
2016-10-17T07:51:39.966Z,22.28
2016-10-17T07:52:40.068Z,22.43
2016-10-17T07:53:40.113Z,22.32
2016-10-17T07:54:40.167Z,22.13
2016-10-17T07:55:40.240Z,22.04
2016-10-17T07:56:40.265Z,22.08
2016-10-17T07:57:40.303Z,22
2016-10-17T07:58:40.380Z,21.96
2016-10-17T08:00:40.498Z,22.08
2016-10-17T08:01:40.518Z,22.13
2016-10-17T08:02:40.560Z,22.15
2016-10-17T08:03:40.611Z,22.26
2016-10-17T08:04:40.654Z,22.15
2016-10-17T08:05:40.744Z,22.3
2016-10-17T08:06:40.909Z,22.3
2016-10-17T08:07:40.847Z,22.33
2016-10-17T08:08:40.886Z,22.43
2016-10-17T08:09:41.001Z,22.32
2016-10-17T08:10:40.988Z,22.39
2016-10-17T08:11:41.122Z,22.41
2016-10-17T08:12:41.089Z,22.41
2016-10-17T08:13:41.120Z,22.29
2016-10-17T08:14:41.228Z,22.32
2016-10-17T08:15:41.315Z,22.2
2016-10-17T08:16:41.406Z,22.3
2016-10-17T08:17:41.928Z,22.38
2016-10-17T08:18:41.479Z,22.22
2016-10-17T08:19:41.487Z,22.25
2016-10-17T08:20:41.517Z,22.22
2016-10-17T08:21:41.686Z,22.32
2016-10-17T08:22:41.630Z,22.38
2016-10-17T08:23:41.664Z,22.38
2016-10-17T08:24:41.763Z,22.44
2016-10-17T08:25:41.791Z,22.62
2016-10-17T08:26:41.870Z,22.55
2016-10-17T08:27:41.874Z,22.53
2016-10-17T08:28:41.909Z,22.51
2016-10-17T08:29:41.985Z,22.55
2016-10-17T08:30:42.062Z,22.38
2016-10-17T08:31:42.124Z,22.39
2016-10-17T08:32:42.151Z,22.29
2016-10-17T08:33:42.211Z,22.32
2016-10-17T08:34:42.229Z,22.3
2016-10-17T08:35:42.321Z,22.17
2016-10-17T08:36:42.383Z,22.28
2016-10-17T08:37:42.517Z,22.2
2016-10-17T08:38:42.453Z,22.29
2016-10-17T08:39:42.538Z,22.22
2016-10-17T08:40:42.562Z,22.22
2016-10-17T08:41:42.624Z,22.25
2016-10-17T08:42:42.846Z,22.22
2016-10-17T08:43:42.767Z,22.25
2016-10-17T08:44:42.811Z,22.3
2016-10-17T08:45:42.905Z,22.23
2016-10-17T08:46:42.893Z,22.22
2016-10-17T08:47:43.551Z,22.3
2016-10-17T08:48:42.985Z,22.38
2016-10-17T08:49:43.044Z,22.39
2016-10-17T08:50:43.090Z,22.32
2016-10-17T08:51:43.164Z,22.35
2016-10-17T08:52:43.301Z,22.47
2016-10-17T08:53:43.304Z,22.38
2016-10-17T08:54:43.367Z,22.5
2016-10-17T08:55:43.439Z,22.48
2016-10-17T08:56:43.451Z,22.5
2016-10-17T08:57:43.488Z,22.55
2016-10-17T08:58:43.563Z,22.51
2016-10-17T08:59:43.580Z,22.51
2016-10-17T09:00:44.151Z,22.48
2016-10-17T09:01:43.693Z,22.5
2016-10-17T09:02:43.743Z,22.54
2016-10-17T09:03:43.821Z,22.53
2016-10-17T09:04:43.831Z,22.39
2016-10-17T09:05:44.540Z,22.47
2016-10-17T09:06:44.417Z,22.35
2016-10-17T09:07:44.029Z,22.32
2016-10-17T09:08:44.089Z,22.33
2016-10-17T09:09:44.625Z,22.33
2016-10-17T09:10:44.315Z,22.48
2016-10-17T09:11:44.752Z,22.54
2016-10-17T09:12:44.316Z,22.59
2016-10-17T09:13:44.488Z,22.7
2016-10-17T09:14:44.445Z,22.7
2016-10-17T09:15:44.951Z,22.69
2016-10-17T09:16:44.503Z,22.7
2016-10-17T09:17:44.577Z,22.76
2016-10-17T09:18:45.300Z,22.76
2016-10-17T09:19:44.887Z,22.73
2016-10-17T09:20:45.354Z,22.87
2016-10-17T09:21:44.862Z,22.9
2016-10-17T09:22:45.853Z,22.94
2016-10-17T09:23:45.000Z,23.03
2016-10-17T09:24:44.950Z,22.94
2016-10-17T09:25:45.433Z,22.98
2016-10-17T09:26:45.104Z,22.96
2016-10-17T09:27:45.102Z,22.88
2016-10-17T09:28:45.229Z,22.98
2016-10-17T09:29:45.235Z,23
2016-10-17T09:30:45.234Z,23.03
2016-10-17T09:31:45.339Z,23.09
2016-10-17T09:32:45.378Z,23.1
2016-10-17T09:33:45.404Z,23.12
2016-10-17T09:34:45.432Z,23.27
2016-10-17T09:35:45.510Z,23.25
2016-10-17T09:36:46.541Z,23.21
2016-10-17T09:37:45.660Z,23.36
2016-10-17T09:38:45.656Z,23.21
2016-10-17T09:39:45.724Z,23.2
2016-10-17T09:40:46.280Z,23.13
2016-10-17T09:41:45.823Z,23.21
2016-10-17T09:42:46.418Z,23.32
2016-10-17T09:43:45.955Z,23.43
2016-10-17T09:44:45.991Z,23.4
2016-10-17T09:45:46.083Z,23.47
2016-10-17T09:46:46.058Z,23.48
2016-10-17T09:47:46.700Z,23.48
2016-10-17T09:48:46.293Z,23.5
2016-10-17T09:49:46.358Z,23.54
2016-10-17T09:50:46.807Z,23.5
2016-10-17T09:51:46.379Z,23.48
2016-10-17T09:52:46.408Z,23.54
2016-10-17T09:53:46.489Z,23.51
2016-10-17T09:54:46.630Z,23.59
2016-10-17T09:55:47.071Z,23.59
2016-10-17T09:56:47.284Z,23.62
2016-10-17T09:57:47.200Z,23.58
2016-10-17T09:58:46.707Z,23.59
2016-10-17T09:59:46.898Z,23.58
2016-10-17T10:00:47.425Z,23.62
2016-10-17T10:01:46.907Z,23.59
2016-10-17T10:02:46.952Z,23.68
2016-10-17T10:03:47.054Z,23.68
2016-10-17T10:04:47.141Z,23.65
2016-10-17T10:05:47.169Z,23.55
2016-10-17T10:06:47.186Z,23.59
2016-10-17T10:07:47.282Z,23.63
2016-10-17T10:08:47.295Z,23.66
2016-10-17T10:09:47.518Z,23.69
2016-10-17T10:10:47.380Z,23.73
2016-10-17T10:11:47.444Z,23.77
2016-10-17T10:12:47.732Z,23.8
2016-10-17T10:13:47.617Z,23.77
2016-10-17T10:14:47.630Z,23.83
2016-10-17T10:15:47.648Z,23.87
2016-10-17T10:16:47.783Z,23.93
2016-10-17T10:17:47.743Z,23.92
2016-10-17T10:18:47.847Z,23.96
2016-10-17T10:19:47.936Z,24.03
2016-10-17T10:20:47.961Z,24.08
2016-10-17T10:21:48.019Z,24.05
2016-10-17T10:22:48.068Z,24.08
2016-10-17T10:23:48.272Z,24.17
2016-10-17T10:24:48.184Z,24.23
2016-10-17T10:25:48.287Z,24.2
2016-10-17T10:26:48.263Z,24.18
2016-10-17T10:27:48.830Z,24.28
2016-10-17T10:28:48.397Z,24.28
2016-10-17T10:29:48.411Z,24.3
2016-10-17T10:30:48.575Z,24.36
2016-10-17T10:31:48.571Z,24.38
2016-10-17T10:32:49.627Z,24.48
2016-10-17T10:33:48.671Z,24.55
2016-10-17T10:34:49.191Z,24.53
2016-10-17T10:35:49.349Z,24.65
2016-10-17T10:36:49.332Z,24.55
2016-10-17T10:37:48.836Z,24.6
2016-10-17T10:38:48.898Z,24.66
2016-10-17T10:39:49.005Z,24.69
2016-10-17T10:40:49.656Z,24.68
2016-10-17T10:41:51.101Z,24.73
2016-10-17T10:42:49.125Z,24.7
2016-10-17T10:43:49.240Z,24.77
2016-10-17T10:44:49.247Z,24.74
2016-10-17T10:45:49.290Z,24.78
2016-10-17T10:46:49.317Z,24.88
2016-10-17T10:47:49.432Z,24.92
2016-10-17T10:48:50.003Z,24.92
2016-10-17T10:49:49.529Z,25.06
2016-10-17T10:50:50.098Z,25.07
2016-10-17T10:51:49.638Z,25.1
2016-10-17T10:52:49.729Z,25.03
2016-10-17T10:53:49.782Z,25.16
2016-10-17T10:54:50.532Z,25.16
2016-10-17T10:55:50.340Z,25.1
2016-10-17T10:56:50.443Z,25.17
2016-10-17T10:57:50.543Z,25.11
2016-10-17T10:58:50.593Z,24.98
2016-10-17T10:59:50.596Z,25.17
2016-10-17T11:00:50.171Z,25.13
2016-10-17T11:01:51.504Z,25.16
2016-10-17T11:02:50.812Z,25.29
2016-10-17T11:03:50.331Z,25.31
2016-10-17T11:04:50.882Z,25.4
2016-10-17T11:05:50.897Z,25.36
2016-10-17T11:06:50.570Z,25.38
2016-10-17T11:07:51.360Z,25.41
2016-10-17T11:08:50.575Z,25.53
2016-10-17T11:09:50.663Z,25.47
2016-10-17T11:10:50.668Z,25.53
2016-10-17T11:11:50.802Z,25.44
2016-10-17T11:12:51.860Z,25.46
2016-10-17T11:13:50.851Z,25.53
2016-10-17T11:14:50.892Z,25.6
2016-10-17T11:15:50.904Z,25.62
2016-10-17T11:16:51.151Z,25.55
2016-10-17T11:17:51.063Z,25.63
2016-10-17T11:18:51.121Z,25.47
2016-10-17T11:19:51.220Z,25.46
2016-10-17T11:20:51.730Z,25.55
2016-10-17T11:21:51.441Z,25.54
2016-10-17T11:22:51.398Z,25.53
2016-10-17T11:23:51.919Z,25.53
2016-10-17T11:24:51.929Z,25.55
2016-10-17T11:25:51.536Z,25.51
2016-10-17T11:26:52.125Z,25.65
2016-10-17T11:27:51.660Z,25.59
2016-10-17T11:28:51.752Z,25.68
2016-10-17T11:29:51.744Z,25.7
2016-10-17T11:30:52.005Z,25.75
2016-10-17T11:31:52.357Z,25.78
2016-10-17T11:32:52.482Z,25.8
2016-10-17T11:33:51.968Z,25.9
2016-10-17T11:34:52.494Z,25.9
2016-10-17T11:35:52.031Z,25.88
2016-10-17T11:36:52.127Z,25.87
2016-10-17T11:37:52.274Z,25.88
2016-10-17T11:38:52.268Z,26.03
2016-10-17T11:39:52.254Z,26.18
2016-10-17T11:40:52.356Z,26.18
2016-10-17T11:41:52.393Z,26.26
2016-10-17T11:42:53.102Z,26.26
2016-10-17T11:43:52.955Z,26.37
2016-10-17T11:44:52.557Z,26.21
2016-10-17T11:45:52.660Z,26.16
2016-10-17T11:46:53.176Z,26.31
2016-10-17T11:47:52.830Z,26.25
2016-10-17T11:48:52.754Z,26.28
2016-10-17T11:49:52.802Z,26.28
2016-10-17T11:50:52.905Z,26.37
2016-10-17T11:51:53.031Z,26.34
2016-10-17T11:52:53.686Z,26.44
2016-10-17T11:53:53.571Z,26.52
2016-10-17T11:54:53.648Z,26.55
2016-10-17T11:55:53.688Z,26.66
2016-10-17T11:56:53.249Z,26.6
2016-10-17T11:57:54.369Z,26.66
2016-10-17T11:58:53.875Z,26.7
2016-10-17T11:59:53.893Z,26.83
2016-10-17T12:00:54.537Z,26.92
2016-10-17T12:01:53.526Z,26.93
2016-10-17T12:02:53.580Z,26.95
2016-10-17T12:03:54.207Z,26.93
2016-10-17T12:04:53.657Z,26.96
2016-10-17T12:05:54.258Z,26.93
2016-10-17T12:06:54.252Z,26.99
2016-10-17T12:07:53.809Z,26.99
2016-10-17T12:08:54.020Z,26.99
2016-10-17T12:09:54.500Z,27.07
2016-10-17T12:10:54.012Z,27.03
2016-10-17T12:11:54.100Z,27.18
2016-10-17T12:12:54.312Z,27.2
2016-10-17T12:13:54.455Z,27.3
2016-10-17T12:14:54.774Z,27.37
2016-10-17T12:15:54.266Z,27.35
2016-10-17T12:16:54.365Z,27.47
2016-10-17T12:17:54.438Z,27.47
2016-10-17T12:18:55.102Z,27.63
2016-10-17T12:19:54.556Z,27.65
2016-10-17T12:20:54.742Z,27.6
2016-10-17T12:21:54.655Z,27.65
2016-10-17T12:22:54.719Z,27.68
2016-10-17T12:23:55.388Z,27.65
2016-10-17T12:24:54.813Z,27.75
2016-10-17T12:25:54.939Z,27.85
2016-10-17T12:26:55.403Z,27.86
2016-10-17T12:27:55.562Z,27.89
2016-10-17T12:28:55.751Z,27.92
2016-10-17T12:29:55.113Z,28.01
2016-10-17T12:30:55.109Z,28.05
2016-10-17T12:31:55.193Z,28.07
2016-10-17T12:32:55.749Z,28.15
2016-10-17T12:33:55.798Z,28.3
2016-10-17T12:34:55.859Z,28.3
2016-10-17T12:35:55.991Z,28.35
2016-10-17T12:36:55.985Z,28.37
2016-10-17T12:37:56.099Z,28.44
2016-10-17T12:38:55.637Z,28.51
2016-10-17T12:39:55.664Z,28.52
2016-10-17T12:40:56.266Z,28.56
2016-10-17T12:41:57.149Z,28.54
2016-10-17T12:42:56.430Z,28.51
2016-10-17T12:43:56.376Z,28.51
2016-10-17T12:44:56.515Z,28.49
2016-10-17T12:45:55.984Z,28.48
2016-10-17T12:46:56.056Z,28.59
2016-10-17T12:47:56.067Z,28.64
2016-10-17T12:48:56.981Z,28.74
2016-10-17T12:49:59.295Z,28.79
2016-10-17T12:50:56.258Z,28.78
2016-10-17T12:51:56.838Z,28.81
2016-10-17T12:52:56.407Z,28.86
2016-10-17T12:54:00.077Z,28.81
2016-10-17T12:54:57.727Z,28.84
2016-10-17T12:55:56.552Z,28.88
2016-10-17T12:56:58.032Z,28.97
2016-10-17T12:57:56.709Z,28.91